地図

経路データ

SID SEASON NUMBER BASIN SUBBASIN NAME ISO_TIME NATURE LAT LON WMO_WIND WMO_PRES WMO_AGENCY TRACK_TYPE DIST2LAND LANDFALL IFLAG USA_AGENCY USA_ATCF_ID USA_LAT USA_LON USA_RECORD USA_STATUS USA_WIND USA_PRES USA_SSHS USA_R34_NE USA_R34_SE USA_R34_SW USA_R34_NW USA_R50_NE USA_R50_SE USA_R50_SW USA_R50_NW USA_R64_NE USA_R64_SE USA_R64_SW USA_R64_NW USA_POCI USA_ROCI USA_RMW USA_EYE TOKYO_LAT TOKYO_LON TOKYO_GRADE TOKYO_WIND TOKYO_PRES TOKYO_R50_DIR TOKYO_R50_LONG TOKYO_R50_SHORT TOKYO_R30_DIR TOKYO_R30_LONG TOKYO_R30_SHORT TOKYO_LAND CMA_LAT CMA_LON CMA_CAT CMA_WIND CMA_PRES HKO_LAT HKO_LON HKO_CAT HKO_WIND HKO_PRES NEWDELHI_LAT NEWDELHI_LON NEWDELHI_GRADE NEWDELHI_WIND NEWDELHI_PRES NEWDELHI_CI NEWDELHI_DP NEWDELHI_POCI REUNION_LAT REUNION_LON REUNION_TYPE REUNION_WIND REUNION_PRES REUNION_TNUM REUNION_CI REUNION_RMW REUNION_R34_NE REUNION_R34_SE REUNION_R34_SW REUNION_R34_NW REUNION_R50_NE REUNION_R50_SE REUNION_R50_SW REUNION_R50_NW REUNION_R64_NE REUNION_R64_SE REUNION_R64_SW REUNION_R64_NW BOM_LAT BOM_LON BOM_TYPE BOM_WIND BOM_PRES BOM_TNUM BOM_CI BOM_RMW BOM_R34_NE BOM_R34_SE BOM_R34_SW BOM_R34_NW BOM_R50_NE BOM_R50_SE BOM_R50_SW BOM_R50_NW BOM_R64_NE BOM_R64_SE BOM_R64_SW BOM_R64_NW BOM_ROCI BOM_POCI BOM_EYE BOM_POS_METHOD BOM_PRES_METHOD NADI_LAT NADI_LON NADI_CAT NADI_WIND NADI_PRES WELLINGTON_LAT WELLINGTON_LON WELLINGTON_WIND WELLINGTON_PRES DS824_LAT DS824_LON DS824_STAGE DS824_WIND DS824_PRES TD9636_LAT TD9636_LON TD9636_STAGE TD9636_WIND TD9636_PRES TD9635_LAT TD9635_LON TD9635_WIND TD9635_PRES TD9635_ROCI NEUMANN_LAT NEUMANN_LON NEUMANN_CLASS NEUMANN_WIND NEUMANN_PRES MLC_LAT MLC_LON MLC_CLASS MLC_WIND MLC_PRES USA_GUST BOM_GUST BOM_GUST_PER REUNION_GUST REUNION_GUST_PER USA_SEAHGT USA_SEARAD_NE USA_SEARAD_SE USA_SEARAD_SW USA_SEARAD_NW STORM_SPEED STORM_DIR
1945325S12065 1946 77 SI MM NOT_NAMED 1945-11-21 06:00:00 NR -11.8000 64.9000 reunion main 1206 1199 _____O________ -1 -11.8000 64.9000 99 9.90000 2 239
1945325S12065 1946 77 SI MM NOT_NAMED 1945-11-21 09:00:00 NR -11.8451 64.8223 main 1199 1183 _____P________ -1 -11.8451 64.8223 99 2 238
1945325S12065 1946 77 SI MM NOT_NAMED 1945-11-21 12:00:00 NR -11.8991 64.7389 main 1183 1168 _____P________ -1 -11.8991 64.7389 99 2 234
1945325S12065 1946 77 SI MM NOT_NAMED 1945-11-21 15:00:00 NR -11.9706 64.6442 main 1168 1152 _____P________ -1 -11.9706 64.6442 99 3 230
1945325S12065 1946 77 SI MM NOT_NAMED 1945-11-21 18:00:00 NR -12.0685 64.5325 main 1152 1137 _____P________ -1 -12.0685 64.5325 99 3 226
1945325S12065 1946 77 SI MM NOT_NAMED 1945-11-21 21:00:00 NR -12.2016 64.3981 main 1137 1106 _____P________ -1 -12.2016 64.3981 99 4 223
1945325S12065 1946 77 SI MM NOT_NAMED 1945-11-22 00:00:00 NR -12.3787 64.2351 main 1106 1075 _____P________ -1 -12.3787 64.2351 99 5 221
1945325S12065 1946 77 SI MM NOT_NAMED 1945-11-22 03:00:00 NR -12.6086 64.0377 main 1075 1035 _____P________ -1 -12.6086 64.0377 99 7 219
1945325S12065 1946 77 SI MM NOT_NAMED 1945-11-22 06:00:00 NR -12.9000 63.8000 reunion main 1035 988 _____O________ -1 -12.9000 63.8000 99 9.90000 8 218
1945325S12065 1946 77 SI MM NOT_NAMED 1945-11-22 09:00:00 NR -13.2585 63.5193 main 979 924 _____P________ -1 -13.2585 63.5193 99 10 217
1945325S12065 1946 77 SI MM NOT_NAMED 1945-11-22 12:00:00 NR -13.6773 63.2069 main 924 869 _____P________ -1 -13.6773 63.2069 99 11 215
1945325S12065 1946 77 SI MM NOT_NAMED 1945-11-22 15:00:00 NR -14.1464 62.8774 main 869 805 _____P________ -1 -14.1464 62.8774 99 12 213
1945325S12065 1946 77 SI MM NOT_NAMED 1945-11-22 18:00:00 NR -14.6557 62.5457 main 790 726 _____P________ -1 -14.6557 62.5457 99 12 211
1945325S12065 1946 77 SI MM NOT_NAMED 1945-11-22 21:00:00 NR -15.1954 62.2267 main 726 670 _____P________ -1 -15.1954 62.2267 99 13 208
1945325S12065 1946 77 SI MM NOT_NAMED 1945-11-23 00:00:00 NR -15.7558 61.9358 main 654 599 _____P________ -1 -15.7558 61.9358 99 13 205
1945325S12065 1946 77 SI MM NOT_NAMED 1945-11-23 03:00:00 NR -16.3272 61.6884 main 599 537 _____P________ -1 -16.3272 61.6884 99 12 200
1945325S12065 1946 77 SI MM NOT_NAMED 1945-11-23 06:00:00 NR -16.9000 61.5000 reunion main 537 484 _____O________ -1 -16.9000 61.5000 99 9.90000 12 197
1945325S12065 1946 77 SI MM NOT_NAMED 1945-11-23 09:00:00 NR -17.4238 61.3410 main 484 442 _____P________ -1 -17.4238 61.3410 99 11 194
1945325S12065 1946 77 SI MM NOT_NAMED 1945-11-23 12:00:00 NR -17.9554 61.2292 main 436 408 _____P________ -1 -17.9554 61.2292 99 11 189
1945325S12065 1946 77 SI MM NOT_NAMED 1945-11-23 15:00:00 NR -18.4946 61.1706 main 408 384 _____P________ -1 -18.4946 61.1706 99 11 183
1945325S12065 1946 77 SI MM NOT_NAMED 1945-11-23 18:00:00 NR -19.0413 61.1715 main 384 363 _____P________ -1 -19.0413 61.1715 99 11 177
1945325S12065 1946 77 SI MM NOT_NAMED 1945-11-23 21:00:00 NR -19.5954 61.2383 main 363 361 _____P________ -1 -19.5954 61.2383 99 11 170
1945325S12065 1946 77 SI MM NOT_NAMED 1945-11-24 00:00:00 NR -20.1567 61.3775 main 375 375 _____P________ -1 -20.1567 61.3775 99 12 163
1945325S12065 1946 77 SI MM NOT_NAMED 1945-11-24 03:00:00 NR -20.7251 61.5957 main 398 398 _____P________ -1 -20.7251 61.5957 99 13 157
1945325S12065 1946 77 SI MM NOT_NAMED 1945-11-24 06:00:00 NR -21.3000 61.9000 reunion main 440 440 _____O________ -1 -21.3000 61.9000 99 9.90000 14 150
1945325S12065 1946 77 SI MM NOT_NAMED 1945-11-24 09:00:00 NR -21.9491 62.3559 main 509 509 _____P________ -1 -21.9491 62.3559 99 16 144
1945325S12065 1946 77 SI MM NOT_NAMED 1945-11-24 12:00:00 NR -22.6135 62.9161 main 586 586 _____P________ -1 -22.6135 62.9161 99 17 140
1945325S12065 1946 77 SI MM NOT_NAMED 1945-11-24 15:00:00 NR -23.2762 63.5522 main 684 684 _____P________ -1 -23.2762 63.5522 99 18 137
1945325S12065 1946 77 SI MM NOT_NAMED 1945-11-24 18:00:00 NR -23.9207 64.2345 main 769 769 _____P________ -1 -23.9207 64.2345 99 18 135
1945325S12065 1946 77 SI MM NOT_NAMED 1945-11-24 21:00:00 NR -24.5307 64.9324 main 863 863 _____P________ -1 -24.5307 64.9324 99 17 133
1945325S12065 1946 77 SI MM NOT_NAMED 1945-11-25 00:00:00 NR -25.0906 65.6144 main 958 958 _____P________ -1 -25.0906 65.6144 99 16 132
1945325S12065 1946 77 SI MM NOT_NAMED 1945-11-25 03:00:00 NR -25.5851 66.2480 main 1039 1039 _____P________ -1 -25.5851 66.2480 99 14 130
1945325S12065 1946 77 SI MM NOT_NAMED 1945-11-25 06:00:00 NR -26.0000 66.8000 reunion main 1113 1113 _____O________ -1 -26.0000 66.8000 99 9.90000 12 130
1945325S12065 1946 77 SI MM NOT_NAMED 1945-11-25 09:00:00 NR -26.3256 67.2447 main 1165 1165 _____P________ -1 -26.3256 67.2447 99 9 129
1945325S12065 1946 77 SI MM NOT_NAMED 1945-11-25 12:00:00 NR -26.5702 67.5876 main 1216 1216 _____P________ -1 -26.5702 67.5876 99 7 128
1945325S12065 1946 77 SI MM NOT_NAMED 1945-11-25 15:00:00 NR -26.7460 67.8423 main 1239 1239 _____P________ -1 -26.7460 67.8423 99 5 127
1945325S12065 1946 77 SI MM NOT_NAMED 1945-11-25 18:00:00 NR -26.8647 68.0231 main 1268 1268 _____P________ -1 -26.8647 68.0231 99 3 125
1945325S12065 1946 77 SI MM NOT_NAMED 1945-11-25 21:00:00 NR -26.9381 68.1445 main 1276 1276 _____P________ -1 -26.9381 68.1445 99 2 123
1945325S12065 1946 77 SI MM NOT_NAMED 1945-11-26 00:00:00 NR -26.9775 68.2212 main 1290 1290 _____P________ -1 -26.9775 68.2212 99 1 117
1945325S12065 1946 77 SI MM NOT_NAMED 1945-11-26 03:00:00 NR -26.9944 68.2681 main 1299 1299 _____P________ -1 -26.9944 68.2681 99 1 109
1945325S12065 1946 77 SI MM NOT_NAMED 1945-11-26 06:00:00 NR -27.0000 68.3000 reunion main 1299 _____O________ -1 -27.0000 68.3000 99 9.90000 1 98

IBTrACS Databaseについて

本データベースは、米国NOAAが公開する1842年以降の世界の熱帯低気圧のベストトラックデータアーカイブInternational Best Track Archive for Climate Stewardship (IBTrACS)を、ウェブで閲覧しやすい形式に変換したものです。

最終更新日:2021-11-26